Pernell, Oklahoma
Current Conditions -  °F | °C
As of 5:35 AM on Tuesday 21 Oct 2014 (Local Time) from KPVJ Reporting Station
Haze Haze  
Wind Chill: 57°   Ceiling: 700
Heat Index: 57°   Visibility: 1.2mi
Dew Point: 57°   Wind: 0mph
Humidity: 100%   Direction: NA
Pressure: 30.06"   Gusts: NA
Location:  34.56°N, 97.5°W
Report Text: KPVJ 211035Z AUTO 00000KT 1 1/4SM BR VV007 14/14 A3006 RMK AO2 T01400140
Loading
Personal Weather Stations






























Interactive Weather Map
Tropical Storm Tracking
New forecast layout! Learn more

10-Day Weather Forecast

Advertisements
Track Severe Weather on mobile